sensor_id;sensor_type;location;lat;lon;timestamp;pressure;altitude;pressure_sealevel;temperature;humidity
76632;BME280;65526;48.578;-4.520;2022-12-07T00:01:28;101252.44;;;0.58;81.79
76632;BME280;65526;48.578;-4.520;2022-12-07T00:03:57;101568.91;;;2.53;82.00
76632;BME280;65526;48.578;-4.520;2022-12-07T00:06:35;101587.28;;;2.58;81.97
76632;BME280;65526;48.578;-4.520;2022-12-07T00:09:03;101638.88;;;2.76;82.09
76632;BME280;65526;48.578;-4.520;2022-12-07T00:11:30;101402.81;;;1.51;81.75
76632;BME280;65526;48.578;-4.520;2022-12-07T00:14:00;101621.59;;;2.40;81.56
76632;BME280;65526;48.578;-4.520;2022-12-07T00:16:30;101782.41;;;3.68;82.19
76632;BME280;65526;48.578;-4.520;2022-12-07T00:18:56;101726.97;;;3.10;82.13
76632;BME280;65526;48.578;-4.520;2022-12-07T00:21:28;101944.94;;;4.86;82.14
76632;BME280;65526;48.578;-4.520;2022-12-07T00:23:55;101342.56;;;1.21;81.75
76632;BME280;65526;48.578;-4.520;2022-12-07T00:26:25;101630.06;;;2.99;81.78
76632;BME280;65526;48.578;-4.520;2022-12-07T00:28:57;101321.44;;;1.16;81.80
76632;BME280;65526;48.578;-4.520;2022-12-07T00:31:26;101763.44;;;3.66;81.92
76632;BME280;65526;48.578;-4.520;2022-12-07T00:33:53;101445.53;;;1.47;81.87
76632;BME280;65526;48.578;-4.520;2022-12-07T00:36:21;101275.47;;;0.93;81.81
76632;BME280;65526;48.578;-4.520;2022-12-07T00:38:48;101641.34;;;2.67;81.91
76632;BME280;65526;48.578;-4.520;2022-12-07T00:41:18;101537.13;;;2.42;82.29
76632;BME280;65526;48.578;-4.520;2022-12-07T00:43:47;101388.56;;;1.54;82.11
76632;BME280;65526;48.578;-4.520;2022-12-07T00:46:14;101405.00;;;1.49;82.20
76632;BME280;65526;48.578;-4.520;2022-12-07T00:48:41;101369.69;;;1.47;82.49
76632;BME280;65526;48.578;-4.520;2022-12-07T00:51:10;101631.44;;;3.07;82.84
76632;BME280;65526;48.578;-4.520;2022-12-07T00:53:37;101533.28;;;2.48;82.41
76632;BME280;65526;48.578;-4.520;2022-12-07T00:56:14;101435.16;;;1.74;82.42
76632;BME280;65526;48.578;-4.520;2022-12-07T00:58:42;101360.91;;;1.40;81.96
76632;BME280;65526;48.578;-4.520;2022-12-07T01:04:36;101971.41;;;4.82;82.35
76632;BME280;65526;48.578;-4.520;2022-12-07T01:07:02;101957.06;;;4.80;82.39
76632;BME280;65526;48.578;-4.520;2022-12-07T01:09:28;101501.75;;;2.00;82.31
76632;BME280;65526;48.578;-4.520;2022-12-07T01:11:55;101656.97;;;3.07;82.36
76632;BME280;65526;48.578;-4.520;2022-12-07T01:14:22;101248.06;;;0.52;82.24
76632;BME280;65526;48.578;-4.520;2022-12-07T01:16:48;101480.09;;;2.04;82.36
76632;BME280;65526;48.578;-4.520;2022-12-07T01:19:15;101268.69;;;0.08;82.22
76632;BME280;65526;48.578;-4.520;2022-12-07T01:21:42;100989.38;;;-1.33;82.05
76632;BME280;65526;48.578;-4.520;2022-12-07T01:24:10;101384.19;;;1.48;82.37
76632;BME280;65526;48.578;-4.520;2022-12-07T01:26:37;101650.69;;;2.46;82.63
76632;BME280;65526;48.578;-4.520;2022-12-07T01:29:04;101470.22;;;2.08;82.58
76632;BME280;65526;48.578;-4.520;2022-12-07T01:31:30;101643.00;;;2.68;82.37
76632;BME280;65526;48.578;-4.520;2022-12-07T01:33:58;101941.69;;;4.74;82.89
76632;BME280;65526;48.578;-4.520;2022-12-07T01:36:27;101597.72;;;2.76;82.77
76632;BME280;65526;48.578;-4.520;2022-12-07T01:38:56;101349.91;;;1.15;82.68
76632;BME280;65526;48.578;-4.520;2022-12-07T01:41:26;101515.19;;;2.12;82.59
76632;BME280;65526;48.578;-4.520;2022-12-07T01:44:18;101740.16;;;3.33;82.86
76632;BME280;65526;48.578;-4.520;2022-12-07T01:46:52;101366.59;;;0.98;82.42
76632;BME280;65526;48.578;-4.520;2022-12-07T01:51:48;101551.84;;;1.65;82.76
76632;BME280;65526;48.578;-4.520;2022-12-07T01:54:16;101940.31;;;4.66;82.96
76632;BME280;65526;48.578;-4.520;2022-12-07T01:56:47;101238.34;;;-0.01;82.33
76632;BME280;65526;48.578;-4.520;2022-12-07T01:59:16;101930.69;;;4.69;82.76
76632;BME280;65526;48.578;-4.520;2022-12-07T02:01:44;101491.59;;;2.06;82.45
76632;BME280;65526;48.578;-4.520;2022-12-07T02:04:11;101472.13;;;1.72;82.55
76632;BME280;65526;48.578;-4.520;2022-12-07T02:06:38;101659.19;;;2.65;82.88
76632;BME280;65526;48.578;-4.520;2022-12-07T02:09:04;101623.75;;;2.84;82.79
76632;BME280;65526;48.578;-4.520;2022-12-07T02:11:31;101687.72;;;2.99;82.68
76632;BME280;65526;48.578;-4.520;2022-12-07T02:13:57;101086.91;;;-0.35;82.00
76632;BME280;65526;48.578;-4.520;2022-12-07T02:16:46;101914.38;;;4.83;82.57
76632;BME280;65526;48.578;-4.520;2022-12-07T02:19:56;101432.66;;;1.57;82.27
76632;BME280;65526;48.578;-4.520;2022-12-07T02:28:31;101931.94;;;4.92;82.46
76632;BME280;65526;48.578;-4.520;2022-12-07T02:31:15;101153.13;;;0.17;81.93
76632;BME280;65526;48.578;-4.520;2022-12-07T02:33:49;101642.66;;;3.21;82.30
76632;BME280;65526;48.578;-4.520;2022-12-07T02:36:24;101402.81;;;1.71;81.94
76632;BME280;65526;48.578;-4.520;2022-12-07T02:39:00;101931.94;;;4.97;82.55
76632;BME280;65526;48.578;-4.520;2022-12-07T02:41:36;101625.91;;;3.12;82.09
76632;BME280;65526;48.578;-4.520;2022-12-07T02:44:08;101523.94;;;2.04;82.18
76632;BME280;65526;48.578;-4.520;2022-12-07T02:46:40;101544.19;;;2.63;82.07
76632;BME280;65526;48.578;-4.520;2022-12-07T02:49:09;101278.09;;;0.37;81.88
76632;BME280;65526;48.578;-4.520;2022-12-07T02:51:41;101931.09;;;5.01;82.40
76632;BME280;65526;48.578;-4.520;2022-12-07T02:54:17;101567.00;;;2.33;82.08
76632;BME280;65526;48.578;-4.520;2022-12-07T02:59:46;101785.06;;;4.03;82.44
76632;BME280;65526;48.578;-4.520;2022-12-07T03:05:27;101465.28;;;1.84;81.98
76632;BME280;65526;48.578;-4.520;2022-12-07T03:10:56;101777.63;;;4.09;82.24
76632;BME280;65526;48.578;-4.520;2022-12-07T03:13:36;101252.47;;;0.89;82.14
76632;BME280;65526;48.578;-4.520;2022-12-07T03:16:17;101242.28;;;0.44;81.59
76632;BME280;65526;48.578;-4.520;2022-12-07T03:19:08;101924.69;;;5.16;82.49
76632;BME280;65526;48.578;-4.520;2022-12-07T03:21:39;101620.38;;;3.32;82.29
76632;BME280;65526;48.578;-4.520;2022-12-07T03:24:12;101685.22;;;3.28;82.32
76632;BME280;65526;48.578;-4.520;2022-12-07T03:26:48;101916.13;;;5.17;82.40
76632;BME280;65526;48.578;-4.520;2022-12-07T03:29:28;101617.69;;;3.12;82.06
76632;BME280;65526;48.578;-4.520;2022-12-07T03:32:04;101500.03;;;2.65;81.83
76632;BME280;65526;48.578;-4.520;2022-12-07T03:34:40;101407.19;;;1.92;81.77
76632;BME280;65526;48.578;-4.520;2022-12-07T03:40:23;101288.06;;;1.09;81.98
76632;BME280;65526;48.578;-4.520;2022-12-07T03:42:52;101339.53;;;1.73;81.93
76632;BME280;65526;48.578;-4.520;2022-12-07T03:45:23;101589.47;;;2.86;81.92
76632;BME280;65526;48.578;-4.520;2022-12-07T03:53:33;101670.31;;;3.54;82.13
76632;BME280;65526;48.578;-4.520;2022-12-07T03:56:02;101948.66;;;5.15;82.22
76632;BME280;65526;48.578;-4.520;2022-12-07T03:58:30;101293.84;;;1.28;82.08
76632;BME280;65526;48.578;-4.520;2022-12-07T04:00:57;101443.59;;;2.18;82.14
76632;BME280;65526;48.578;-4.520;2022-12-07T04:03:24;101964.63;;;5.13;82.53
76632;BME280;65526;48.578;-4.520;2022-12-07T04:05:50;101418.09;;;2.18;82.26
76632;BME280;65526;48.578;-4.520;2022-12-07T04:08:16;101225.38;;;0.52;82.00
76632;BME280;65526;48.578;-4.520;2022-12-07T04:10:43;101889.13;;;5.14;82.52
76632;BME280;65526;48.578;-4.520;2022-12-07T04:13:09;101465.53;;;2.18;82.42
76632;BME280;65526;48.578;-4.520;2022-12-07T04:15:36;101934.31;;;5.13;82.60
76632;BME280;65526;48.578;-4.520;2022-12-07T04:18:03;101522.28;;;2.48;82.35
76632;BME280;65526;48.578;-4.520;2022-12-07T04:20:29;101369.34;;;1.89;82.06
76632;BME280;65526;48.578;-4.520;2022-12-07T04:22:55;101699.28;;;3.91;82.31
76632;BME280;65526;48.578;-4.520;2022-12-07T04:25:22;101608.53;;;3.37;82.40
76632;BME280;65526;48.578;-4.520;2022-12-07T04:27:48;101595.19;;;2.90;82.63
76632;BME280;65526;48.578;-4.520;2022-12-07T04:30:15;101615.38;;;3.49;82.48
76632;BME280;65526;48.578;-4.520;2022-12-07T04:32:41;101680.78;;;3.37;82.50
76632;BME280;65526;48.578;-4.520;2022-12-07T04:35:08;101075.53;;;0.18;82.22
76632;BME280;65526;48.578;-4.520;2022-12-07T04:37:35;101239.63;;;0.74;82.40
76632;BME280;65526;48.578;-4.520;2022-12-07T04:40:01;101687.84;;;3.69;82.66
76632;BME280;65526;48.578;-4.520;2022-12-07T04:42:28;101897.59;;;4.79;82.63
76632;BME280;65526;48.578;-4.520;2022-12-07T04:44:55;101391.28;;;1.99;82.46
76632;BME280;65526;48.578;-4.520;2022-12-07T04:47:21;101627.78;;;3.32;82.49
76632;BME280;65526;48.578;-4.520;2022-12-07T04:49:47;101374.28;;;1.97;82.42
76632;BME280;65526;48.578;-4.520;2022-12-07T04:52:14;101544.16;;;2.84;82.43
76632;BME280;65526;48.578;-4.520;2022-12-07T04:54:40;101940.38;;;5.15;82.82
76632;BME280;65526;48.578;-4.520;2022-12-07T04:57:07;101217.72;;;0.54;81.99
76632;BME280;65526;48.578;-4.520;2022-12-07T04:59:33;101910.63;;;5.17;82.80
76632;BME280;65526;48.578;-4.520;2022-12-07T05:02:00;101977.28;;;5.19;82.66
76632;BME280;65526;48.578;-4.520;2022-12-07T05:04:26;101510.16;;;2.74;82.36
76632;BME280;65526;48.578;-4.520;2022-12-07T05:06:52;101901.50;;;5.22;82.65
76632;BME280;65526;48.578;-4.520;2022-12-07T05:09:19;101577.53;;;3.26;82.63
76632;BME280;65526;48.578;-4.520;2022-12-07T05:11:45;101572.38;;;3.04;82.71
76632;BME280;65526;48.578;-4.520;2022-12-07T05:14:20;101556.13;;;3.18;82.58
76632;BME280;65526;48.578;-4.520;2022-12-07T05:16:48;101615.91;;;3.51;82.60
76632;BME280;65526;48.578;-4.520;2022-12-07T05:19:16;101326.09;;;1.56;82.62
76632;BME280;65526;48.578;-4.520;2022-12-07T05:21:43;101967.63;;;5.22;83.00
76632;BME280;65526;48.578;-4.520;2022-12-07T05:24:13;101413.16;;;2.35;82.32
76632;BME280;65526;48.578;-4.520;2022-12-07T05:26:39;101285.06;;;1.41;82.36
76632;BME280;65526;48.578;-4.520;2022-12-07T05:29:06;101620.94;;;3.24;82.32
76632;BME280;65526;48.578;-4.520;2022-12-07T05:31:33;101895.75;;;5.18;82.52
76632;BME280;65526;48.578;-4.520;2022-12-07T05:34:00;101273.53;;;1.08;82.18
76632;BME280;65526;48.578;-4.520;2022-12-07T05:36:26;101983.38;;;5.16;82.70
76632;BME280;65526;48.578;-4.520;2022-12-07T05:38:54;101530.69;;;2.92;82.44
76632;BME280;65526;48.578;-4.520;2022-12-07T05:41:20;101909.22;;;4.66;82.91
76632;BME280;65526;48.578;-4.520;2022-12-07T05:44:05;101963.28;;;5.11;82.91
76632;BME280;65526;48.578;-4.520;2022-12-07T05:46:32;101356.75;;;1.83;82.46
76632;BME280;65526;48.578;-4.520;2022-12-07T05:48:59;101883.94;;;5.08;82.58
76632;BME280;65526;48.578;-4.520;2022-12-07T05:51:26;101910.13;;;5.05;82.39
76632;BME280;65526;48.578;-4.520;2022-12-07T05:53:52;101819.19;;;3.97;83.10
76632;BME280;65526;48.578;-4.520;2022-12-07T05:56:19;101930.63;;;4.79;83.01
76632;BME280;65526;48.578;-4.520;2022-12-07T05:58:46;101654.47;;;3.21;82.83
76632;BME280;65526;48.578;-4.520;2022-12-07T06:01:31;101635.03;;;2.82;82.71
76632;BME280;65526;48.578;-4.520;2022-12-07T06:03:58;101933.28;;;5.04;82.84
76632;BME280;65526;48.578;-4.520;2022-12-07T06:06:24;101656.66;;;3.19;82.88
76632;BME280;65526;48.578;-4.520;2022-12-07T06:08:51;101947.63;;;5.01;82.92
76632;BME280;65526;48.578;-4.520;2022-12-07T06:11:17;101300.59;;;0.64;82.50
76632;BME280;65526;48.578;-4.520;2022-12-07T06:14:02;101927.22;;;5.02;83.08
76632;BME280;65526;48.578;-4.520;2022-12-07T06:16:28;101483.38;;;2.06;82.92
76632;BME280;65526;48.578;-4.520;2022-12-07T06:18:55;101899.69;;;5.02;83.24
76632;BME280;65526;48.578;-4.520;2022-12-07T06:21:21;101416.81;;;1.75;83.55
76632;BME280;65526;48.578;-4.520;2022-12-07T06:23:48;101217.66;;;0.28;83.32
76632;BME280;65526;48.578;-4.520;2022-12-07T06:26:15;101646.25;;;3.11;83.77
76632;BME280;65526;48.578;-4.520;2022-12-07T06:28:42;101480.91;;;2.24;84.39
76632;BME280;65526;48.578;-4.520;2022-12-07T06:31:08;101484.75;;;2.08;83.97
76632;BME280;65526;48.578;-4.520;2022-12-07T06:33:35;102027.56;;;4.91;84.89
76632;BME280;65526;48.578;-4.520;2022-12-07T06:36:01;101905.53;;;4.86;84.11
76632;BME280;65526;48.578;-4.520;2022-12-07T06:38:28;101610.84;;;2.99;83.63
76632;BME280;65526;48.578;-4.520;2022-12-07T06:40:54;101413.47;;;1.98;83.43
76632;BME280;65526;48.578;-4.520;2022-12-07T06:43:21;101230.28;;;0.50;83.29
76632;BME280;65526;48.578;-4.520;2022-12-07T06:45:47;101913.44;;;5.07;83.60
76632;BME280;65526;48.578;-4.520;2022-12-07T06:48:14;101247.53;;;0.65;82.90
76632;BME280;65526;48.578;-4.520;2022-12-07T06:50:40;101898.25;;;5.10;83.32
76632;BME280;65526;48.578;-4.520;2022-12-07T06:53:07;101687.13;;;3.43;83.18
76632;BME280;65526;48.578;-4.520;2022-12-07T06:55:34;101910.94;;;5.11;83.31
76632;BME280;65526;48.578;-4.520;2022-12-07T06:58:00;101969.63;;;5.11;83.50
76632;BME280;65526;48.578;-4.520;2022-12-07T07:00:28;101925.22;;;5.13;83.54
76632;BME280;65526;48.578;-4.520;2022-12-07T07:02:54;101492.38;;;2.36;82.98
76632;BME280;65526;48.578;-4.520;2022-12-07T07:05:21;101894.94;;;5.13;83.16
76632;BME280;65526;48.578;-4.520;2022-12-07T07:07:49;101429.34;;;2.16;82.97
76632;BME280;65526;48.578;-4.520;2022-12-07T07:10:16;101977.88;;;5.16;83.13
76632;BME280;65526;48.578;-4.520;2022-12-07T07:12:42;101478.38;;;2.43;82.85
76632;BME280;65526;48.578;-4.520;2022-12-07T07:15:09;101904.53;;;5.21;83.08
76632;BME280;65526;48.578;-4.520;2022-12-07T07:17:37;101899.56;;;5.23;83.33
76632;BME280;65526;48.578;-4.520;2022-12-07T07:20:04;101247.31;;;1.07;82.64
76632;BME280;65526;48.578;-4.520;2022-12-07T07:22:31;101894.06;;;5.23;83.40
76632;BME280;65526;48.578;-4.520;2022-12-07T07:24:57;101477.31;;;2.49;82.85
76632;BME280;65526;48.578;-4.520;2022-12-07T07:27:24;101906.44;;;5.25;83.21
76632;BME280;65526;48.578;-4.520;2022-12-07T07:29:50;101249.19;;;0.66;82.69
76632;BME280;65526;48.578;-4.520;2022-12-07T07:32:16;101331.56;;;1.76;82.91
76632;BME280;65526;48.578;-4.520;2022-12-07T07:34:43;101750.38;;;4.07;83.01
76632;BME280;65526;48.578;-4.520;2022-12-07T07:37:09;101368.28;;;1.70;82.79
76632;BME280;65526;48.578;-4.520;2022-12-07T07:39:38;101431.25;;;2.16;82.90
76632;BME280;65526;48.578;-4.520;2022-12-07T07:42:05;101303.66;;;1.29;82.92
76632;BME280;65526;48.578;-4.520;2022-12-07T07:44:34;101907.78;;;5.28;83.13
76632;BME280;65526;48.578;-4.520;2022-12-07T07:47:01;101527.78;;;2.38;82.80
76632;BME280;65526;48.578;-4.520;2022-12-07T07:49:27;101912.19;;;5.29;83.10
76632;BME280;65526;48.578;-4.520;2022-12-07T07:51:54;101607.72;;;3.41;82.94
76632;BME280;65526;48.578;-4.520;2022-12-07T07:54:20;101284.50;;;1.08;82.65
76632;BME280;65526;48.578;-4.520;2022-12-07T07:56:46;101462.00;;;2.13;82.48
76632;BME280;65526;48.578;-4.520;2022-12-07T07:59:14;101117.06;;;0.35;82.47
76632;BME280;65526;48.578;-4.520;2022-12-07T08:01:40;101243.41;;;0.63;82.69
76632;BME280;65526;48.578;-4.520;2022-12-07T08:04:07;101941.13;;;5.31;82.75
76632;BME280;65526;48.578;-4.520;2022-12-07T08:06:34;101480.88;;;2.39;82.70
76632;BME280;65526;48.578;-4.520;2022-12-07T08:09:00;101934.22;;;5.34;83.10
76632;BME280;65526;48.578;-4.520;2022-12-07T08:11:27;101842.97;;;4.42;83.13
76632;BME280;65526;48.578;-4.520;2022-12-07T08:13:53;101929.78;;;5.33;83.27
76632;BME280;65526;48.578;-4.520;2022-12-07T08:16:20;101832.63;;;4.73;82.75
76632;BME280;65526;48.578;-4.520;2022-12-07T08:18:46;101391.81;;;2.12;82.70
76632;BME280;65526;48.578;-4.520;2022-12-07T08:21:14;101606.19;;;2.85;82.76
76632;BME280;65526;48.578;-4.520;2022-12-07T08:23:41;101371.28;;;1.89;82.57
76632;BME280;65526;48.578;-4.520;2022-12-07T08:26:11;101394.59;;;1.86;82.93
76632;BME280;65526;48.578;-4.520;2022-12-07T08:28:38;101646.19;;;3.36;83.11
76632;BME280;65526;48.578;-4.520;2022-12-07T08:31:10;101447.44;;;2.32;82.95
76632;BME280;65526;48.578;-4.520;2022-12-07T08:33:37;101208.13;;;0.61;82.88
76632;BME280;65526;48.578;-4.520;2022-12-07T08:36:08;101427.13;;;2.23;82.95
76632;BME280;65526;48.578;-4.520;2022-12-07T08:38:35;101807.53;;;4.30;82.94
76632;BME280;65526;48.578;-4.520;2022-12-07T08:41:03;101691.22;;;3.45;83.03
76632;BME280;65526;48.578;-4.520;2022-12-07T08:43:29;101480.56;;;2.56;82.88
76632;BME280;65526;48.578;-4.520;2022-12-07T08:46:10;101914.00;;;5.04;82.82
76632;BME280;65526;48.578;-4.520;2022-12-07T08:48:43;101519.53;;;2.53;82.54
76632;BME280;65526;48.578;-4.520;2022-12-07T08:51:11;101696.19;;;3.38;82.92
76632;BME280;65526;48.578;-4.520;2022-12-07T08:53:38;101658.16;;;3.66;82.59
76632;BME280;65526;48.578;-4.520;2022-12-07T08:56:05;101947.72;;;5.35;83.00
76632;BME280;65526;48.578;-4.520;2022-12-07T08:58:34;101198.25;;;0.35;82.51
76632;BME280;65526;48.578;-4.520;2022-12-07T09:01:01;101462.47;;;2.45;82.49
76632;BME280;65526;48.578;-4.520;2022-12-07T09:03:27;101931.69;;;4.93;82.49
76632;BME280;65526;48.578;-4.520;2022-12-07T09:05:54;101290.28;;;1.27;82.35
76632;BME280;65526;48.578;-4.520;2022-12-07T09:08:22;101958.09;;;5.48;82.65
76632;BME280;65526;48.578;-4.520;2022-12-07T09:10:52;101470.09;;;2.63;82.44
76632;BME280;65526;48.578;-4.520;2022-12-07T09:13:19;101698.13;;;4.07;82.59
76632;BME280;65526;48.578;-4.520;2022-12-07T09:15:45;101543.69;;;2.61;82.18
76632;BME280;65526;48.578;-4.520;2022-12-07T09:18:11;101402.19;;;2.35;82.12
76632;BME280;65526;48.578;-4.520;2022-12-07T09:20:38;101468.28;;;2.28;81.92
76632;BME280;65526;48.578;-4.520;2022-12-07T09:23:07;101940.03;;;5.71;82.29
76632;BME280;65526;48.578;-4.520;2022-12-07T09:25:34;101591.13;;;3.62;82.02
76632;BME280;65526;48.578;-4.520;2022-12-07T09:28:01;101233.59;;;1.23;81.78
76632;BME280;65526;48.578;-4.520;2022-12-07T09:30:28;101412.56;;;2.38;82.31
76632;BME280;65526;48.578;-4.520;2022-12-07T09:32:55;101441.03;;;2.67;82.10
76632;BME280;65526;48.578;-4.520;2022-12-07T09:35:23;101498.91;;;2.81;82.08
76632;BME280;65526;48.578;-4.520;2022-12-07T09:37:50;101427.56;;;2.71;82.00
76632;BME280;65526;48.578;-4.520;2022-12-07T09:40:18;101436.03;;;2.79;81.96
76632;BME280;65526;48.578;-4.520;2022-12-07T09:42:50;101539.06;;;3.26;81.88
76632;BME280;65526;48.578;-4.520;2022-12-07T09:45:24;101523.22;;;3.08;81.93
76632;BME280;65526;48.578;-4.520;2022-12-07T09:47:51;102012.63;;;6.01;82.15
76632;BME280;65526;48.578;-4.520;2022-12-07T09:50:23;101405.91;;;2.64;81.70
76632;BME280;65526;48.578;-4.520;2022-12-07T09:52:52;101581.03;;;3.96;81.95
76632;BME280;65526;48.578;-4.520;2022-12-07T09:55:29;101679.69;;;4.52;81.84
76632;BME280;65526;48.578;-4.520;2022-12-07T09:57:57;101262.28;;;1.66;81.50
76632;BME280;65526;48.578;-4.520;2022-12-07T10:00:25;101919.59;;;6.06;82.14
76632;BME280;65526;48.578;-4.520;2022-12-07T10:02:58;101928.22;;;6.28;81.91
76632;BME280;65526;48.578;-4.520;2022-12-07T10:05:31;101926.53;;;6.32;81.66
76632;BME280;65526;48.578;-4.520;2022-12-07T10:08:00;101644.97;;;4.22;81.78
76632;BME280;65526;48.578;-4.520;2022-12-07T10:10:31;101904.88;;;6.16;81.80
76632;BME280;65526;48.578;-4.520;2022-12-07T10:13:02;101933.56;;;6.44;81.50
76632;BME280;65526;48.578;-4.520;2022-12-07T10:15:53;101955.66;;;6.44;81.57
76632;BME280;65526;48.578;-4.520;2022-12-07T10:18:40;101431.88;;;3.41;80.94
76632;BME280;65526;48.578;-4.520;2022-12-07T10:21:24;101949.19;;;6.53;81.03
76632;BME280;65526;48.578;-4.520;2022-12-07T10:26:34;101219.75;;;1.88;80.69
76632;BME280;65526;48.578;-4.520;2022-12-07T10:31:40;101619.63;;;4.59;80.88
76632;BME280;65526;48.578;-4.520;2022-12-07T10:34:31;101370.16;;;3.24;80.37
76632;BME280;65526;48.578;-4.520;2022-12-07T10:39:55;101996.47;;;6.75;80.71
76632;BME280;65526;48.578;-4.520;2022-12-07T10:42:27;101583.78;;;4.35;80.55
76632;BME280;65526;48.578;-4.520;2022-12-07T10:45:26;101400.63;;;3.66;80.37
76632;BME280;65526;48.578;-4.520;2022-12-07T10:48:12;101910.09;;;6.89;81.06
76632;BME280;65526;48.578;-4.520;2022-12-07T10:53:46;101910.47;;;7.01;80.95
76632;BME280;65526;48.578;-4.520;2022-12-07T10:56:33;101896.63;;;7.06;80.86
76632;BME280;65526;48.578;-4.520;2022-12-07T11:07:17;101467.94;;;4.31;80.11
76632;BME280;65526;48.578;-4.520;2022-12-07T11:18:13;101644.38;;;5.69;80.41
76632;BME280;65526;48.578;-4.520;2022-12-07T11:21:10;101871.06;;;7.14;80.12
76632;BME280;65526;48.578;-4.520;2022-12-07T11:26:29;101600.69;;;5.57;79.92
76632;BME280;65526;48.578;-4.520;2022-12-07T11:29:26;101611.69;;;5.81;79.58
76632;BME280;65526;48.578;-4.520;2022-12-07T11:32:13;101700.44;;;6.50;79.74
76632;BME280;65526;48.578;-4.520;2022-12-07T11:37:35;101385.25;;;4.47;79.42
76632;BME280;65526;48.578;-4.520;2022-12-07T11:40:14;101360.03;;;4.58;79.39
76632;BME280;65526;48.578;-4.520;2022-12-07T11:42:49;101576.28;;;5.46;79.42
76632;BME280;65526;48.578;-4.520;2022-12-07T11:45:28;101686.72;;;6.26;79.33
76632;BME280;65526;48.578;-4.520;2022-12-07T11:48:22;101530.94;;;5.38;79.26
76632;BME280;65526;48.578;-4.520;2022-12-07T11:50:57;101867.84;;;7.77;79.08
76632;BME280;65526;48.578;-4.520;2022-12-07T11:56:21;101406.41;;;5.12;78.90
76632;BME280;65526;48.578;-4.520;2022-12-07T12:04:30;101823.44;;;8.14;78.85
76632;BME280;65526;48.578;-4.520;2022-12-07T12:06:58;101706.41;;;7.08;78.37
76632;BME280;65526;48.578;-4.520;2022-12-07T12:09:29;101827.97;;;8.38;78.35
76632;BME280;65526;48.578;-4.520;2022-12-07T12:12:30;101828.38;;;8.45;78.24
76632;BME280;65526;48.578;-4.520;2022-12-07T12:21:00;101832.88;;;8.68;77.67
76632;BME280;65526;48.578;-4.520;2022-12-07T12:23:51;101802.56;;;8.71;77.57
76632;BME280;65526;48.578;-4.520;2022-12-07T12:26:24;101352.56;;;5.57;76.93
76632;BME280;65526;48.578;-4.520;2022-12-07T12:28:55;101208.06;;;4.61;77.42
76632;BME280;65526;48.578;-4.520;2022-12-07T12:33:56;101792.19;;;8.77;77.63
76632;BME280;65526;48.578;-4.520;2022-12-07T12:46:57;101796.00;;;8.81;76.97
76632;BME280;65526;48.578;-4.520;2022-12-07T12:57:32;101157.03;;;5.01;77.59
76632;BME280;65526;48.578;-4.520;2022-12-07T13:00:00;101380.94;;;6.23;77.21
76632;BME280;65526;48.578;-4.520;2022-12-07T13:02:38;101171.16;;;4.62;77.23
76632;BME280;65526;48.578;-4.520;2022-12-07T13:13:04;101563.88;;;7.70;77.67
76632;BME280;65526;48.578;-4.520;2022-12-07T13:15:48;101402.03;;;6.60;76.24
76632;BME280;65526;48.578;-4.520;2022-12-07T13:31:56;101517.63;;;7.35;76.38
76632;BME280;65526;48.578;-4.520;2022-12-07T13:36:57;101328.19;;;6.24;77.01
76632;BME280;65526;48.578;-4.520;2022-12-07T13:39:25;101136.66;;;5.16;76.79
76632;BME280;65526;48.578;-4.520;2022-12-07T13:41:55;101265.22;;;5.99;76.63
76632;BME280;65526;48.578;-4.520;2022-12-07T13:44:23;101130.91;;;4.66;76.51
76632;BME280;65526;48.578;-4.520;2022-12-07T13:46:57;101718.56;;;8.85;77.04
76632;BME280;65526;48.578;-4.520;2022-12-07T13:49:30;101083.88;;;4.95;77.25
76632;BME280;65526;48.578;-4.520;2022-12-07T13:52:16;100963.31;;;4.19;76.73
76632;BME280;65526;48.578;-4.520;2022-12-07T13:54:48;101771.22;;;8.85;77.34
76632;BME280;65526;48.578;-4.520;2022-12-07T13:57:16;101067.00;;;4.69;76.71
76632;BME280;65526;48.578;-4.520;2022-12-07T13:59:43;101751.50;;;8.86;77.15
76632;BME280;65526;48.578;-4.520;2022-12-07T14:02:22;101223.47;;;5.87;76.76
76632;BME280;65526;48.578;-4.520;2022-12-07T14:04:51;101691.97;;;8.84;77.20
76632;BME280;65526;48.578;-4.520;2022-12-07T14:07:28;101086.53;;;5.14;76.55
76632;BME280;65526;48.578;-4.520;2022-12-07T14:09:59;101225.69;;;5.90;76.89
76632;BME280;65526;48.578;-4.520;2022-12-07T14:12:27;101225.25;;;5.96;76.56
76632;BME280;65526;48.578;-4.520;2022-12-07T14:14:55;101398.22;;;6.83;76.79
76632;BME280;65526;48.578;-4.520;2022-12-07T14:17:24;101692.41;;;8.77;77.08
76632;BME280;65526;48.578;-4.520;2022-12-07T14:19:59;101792.22;;;8.63;77.12
76632;BME280;65526;48.578;-4.520;2022-12-07T14:22:38;101667.59;;;8.72;76.88
76632;BME280;65526;48.578;-4.520;2022-12-07T14:25:19;101672.13;;;8.68;76.75
76632;BME280;65526;48.578;-4.520;2022-12-07T14:27:57;101183.97;;;5.64;76.27
76632;BME280;65526;48.578;-4.520;2022-12-07T14:30:29;101692.47;;;8.63;77.03
76632;BME280;65526;48.578;-4.520;2022-12-07T14:32:59;101009.94;;;4.43;76.67
76632;BME280;65526;48.578;-4.520;2022-12-07T14:35:26;101654.31;;;8.60;77.18
76632;BME280;65526;48.578;-4.520;2022-12-07T14:37:53;101177.63;;;5.64;76.99
76632;BME280;65526;48.578;-4.520;2022-12-07T14:40:29;101468.94;;;6.98;76.74
76632;BME280;65526;48.578;-4.520;2022-12-07T14:43:04;100941.53;;;3.71;76.21
76632;BME280;65526;48.578;-4.520;2022-12-07T14:45:32;101271.47;;;5.58;76.06
76632;BME280;65526;48.578;-4.520;2022-12-07T14:47:59;101074.56;;;4.77;76.29
76632;BME280;65526;48.578;-4.520;2022-12-07T14:50:25;101188.84;;;5.53;77.07
76632;BME280;65526;48.578;-4.520;2022-12-07T14:52:58;100860.97;;;3.43;76.14
76632;BME280;65526;48.578;-4.520;2022-12-07T14:55:30;101404.88;;;6.68;76.66
76632;BME280;65526;48.578;-4.520;2022-12-07T14:57:57;100924.47;;;3.18;76.49
76632;BME280;65526;48.578;-4.520;2022-12-07T15:00:26;101083.63;;;4.46;76.08
76632;BME280;65526;48.578;-4.520;2022-12-07T15:02:52;101178.84;;;4.98;77.99
76632;BME280;65526;48.578;-4.520;2022-12-07T15:05:19;100998.00;;;4.01;77.72
76632;BME280;65526;48.578;-4.520;2022-12-07T15:07:47;101333.81;;;6.06;77.99
76632;BME280;65526;48.578;-4.520;2022-12-07T15:10:26;101454.81;;;6.58;77.69